sensor_id;sensor_type;location;lat;lon;timestamp;pressure;altitude;pressure_sealevel;temperature;humidity
31346;BME280;21711;49.708;18.568;2023-12-29T00:01:36;97371.19;;;9.35;86.80
31346;BME280;21711;49.708;18.568;2023-12-29T00:04:04;97367.75;;;9.34;86.06
31346;BME280;21711;49.708;18.568;2023-12-29T00:06:31;97366.19;;;9.44;87.04
31346;BME280;21711;49.708;18.568;2023-12-29T00:08:58;97352.97;;;9.39;86.34
31346;BME280;21711;49.708;18.568;2023-12-29T00:11:27;97352.97;;;9.49;86.60
31346;BME280;21711;49.708;18.568;2023-12-29T00:13:54;97347.44;;;9.45;86.06
31346;BME280;21711;49.708;18.568;2023-12-29T00:16:22;97341.91;;;9.37;86.49
31346;BME280;21711;49.708;18.568;2023-12-29T00:18:49;97331.09;;;9.49;86.49
31346;BME280;21711;49.708;18.568;2023-12-29T00:21:16;97335.56;;;9.43;87.03
31346;BME280;21711;49.708;18.568;2023-12-29T00:23:47;97332.13;;;9.53;87.91
31346;BME280;21711;49.708;18.568;2023-12-29T00:26:18;97326.59;;;9.49;87.38
31346;BME280;21711;49.708;18.568;2023-12-29T00:28:53;97322.13;;;9.50;87.66
31346;BME280;21711;49.708;18.568;2023-12-29T00:31:21;97323.16;;;9.49;88.98
31346;BME280;21711;49.708;18.568;2023-12-29T00:33:48;97324.22;;;9.53;89.74
31346;BME280;21711;49.708;18.568;2023-12-29T00:36:20;97322.13;;;9.39;92.85
31346;BME280;21711;49.708;18.568;2023-12-29T00:38:49;97326.59;;;9.44;94.92
31346;BME280;21711;49.708;18.568;2023-12-29T00:41:17;97314.19;;;9.39;97.48
31346;BME280;21711;49.708;18.568;2023-12-29T00:43:44;97317.34;;;9.41;98.86
31346;BME280;21711;49.708;18.568;2023-12-29T00:46:14;97318.16;;;9.63;98.20
31346;BME280;21711;49.708;18.568;2023-12-29T00:48:43;97315.50;;;9.52;100.00
31346;BME280;21711;49.708;18.568;2023-12-29T00:51:11;97308.41;;;9.58;100.00
31346;BME280;21711;49.708;18.568;2023-12-29T00:53:38;97311.03;;;9.58;100.00
31346;BME280;21711;49.708;18.568;2023-12-29T00:56:12;97309.41;;;9.62;100.00
31346;BME280;21711;49.708;18.568;2023-12-29T00:58:39;97311.00;;;9.53;100.00
31346;BME280;21711;49.708;18.568;2023-12-29T01:01:08;97308.91;;;9.50;100.00
31346;BME280;21711;49.708;18.568;2023-12-29T01:03:36;97313.38;;;9.54;100.00
31346;BME280;21711;49.708;18.568;2023-12-29T01:06:03;97312.31;;;9.50;100.00
31346;BME280;21711;49.708;18.568;2023-12-29T01:08:31;97308.91;;;9.50;100.00
31346;BME280;21711;49.708;18.568;2023-12-29T01:10:58;97318.41;;;9.40;100.00
31346;BME280;21711;49.708;18.568;2023-12-29T01:13:25;97309.69;;;9.50;100.00
31346;BME280;21711;49.708;18.568;2023-12-29T01:15:53;97311.81;;;9.38;100.00
31346;BME280;21711;49.708;18.568;2023-12-29T01:18:20;97307.59;;;9.37;100.00
31346;BME280;21711;49.708;18.568;2023-12-29T01:20:47;97298.34;;;9.39;100.00
31346;BME280;21711;49.708;18.568;2023-12-29T01:23:15;97295.72;;;9.44;100.00
31346;BME280;21711;49.708;18.568;2023-12-29T01:25:43;97301.00;;;9.44;100.00
31346;BME280;21711;49.708;18.568;2023-12-29T01:28:11;97302.03;;;9.38;100.00
31346;BME280;21711;49.708;18.568;2023-12-29T01:30:39;97289.63;;;9.18;100.00
31346;BME280;21711;49.708;18.568;2023-12-29T01:33:06;97294.88;;;9.02;100.00
31346;BME280;21711;49.708;18.568;2023-12-29T01:35:34;97286.69;;;8.93;100.00
31346;BME280;21711;49.708;18.568;2023-12-29T01:38:03;97293.53;;;8.84;100.00
31346;BME280;21711;49.708;18.568;2023-12-29T01:40:31;97288.75;;;8.76;100.00
31346;BME280;21711;49.708;18.568;2023-12-29T01:42:58;97281.38;;;8.67;100.00
31346;BME280;21711;49.708;18.568;2023-12-29T01:45:25;97286.78;;;8.50;100.00
31346;BME280;21711;49.708;18.568;2023-12-29T01:47:54;97287.28;;;8.37;100.00
31346;BME280;21711;49.708;18.568;2023-12-29T01:50:22;97292.78;;;8.30;100.00
31346;BME280;21711;49.708;18.568;2023-12-29T01:52:50;97293.78;;;8.24;100.00
31346;BME280;21711;49.708;18.568;2023-12-29T01:55:20;97296.16;;;8.20;100.00
31346;BME280;21711;49.708;18.568;2023-12-29T01:57:51;97290.06;;;8.14;100.00
31346;BME280;21711;49.708;18.568;2023-12-29T02:00:19;97287.44;;;8.14;100.00
31346;BME280;21711;49.708;18.568;2023-12-29T02:02:48;97282.94;;;8.10;97.62
31346;BME280;21711;49.708;18.568;2023-12-29T02:05:17;97287.16;;;8.11;96.00
31346;BME280;21711;49.708;18.568;2023-12-29T02:07:51;97280.03;;;8.06;92.28
31346;BME280;21711;49.708;18.568;2023-12-29T02:10:20;97279.94;;;7.96;90.39
31346;BME280;21711;49.708;18.568;2023-12-29T02:12:48;97279.94;;;7.96;96.19
31346;BME280;21711;49.708;18.568;2023-12-29T02:15:16;97277.50;;;7.84;98.66
31346;BME280;21711;49.708;18.568;2023-12-29T02:17:59;97273.66;;;7.59;100.00
31346;BME280;21711;49.708;18.568;2023-12-29T02:20:29;97267.88;;;7.57;97.81
31346;BME280;21711;49.708;18.568;2023-12-29T02:22:57;97258.66;;;7.54;95.72
31346;BME280;21711;49.708;18.568;2023-12-29T02:25:24;97260.25;;;7.60;91.25
31346;BME280;21711;49.708;18.568;2023-12-29T02:28:26;97259.56;;;7.75;87.95
31346;BME280;21711;49.708;18.568;2023-12-29T02:31:16;97254.09;;;7.82;86.32
31346;BME280;21711;49.708;18.568;2023-12-29T02:33:47;97253.28;;;7.82;85.10
31346;BME280;21711;49.708;18.568;2023-12-29T02:36:17;97247.31;;;7.97;85.38
31346;BME280;21711;49.708;18.568;2023-12-29T02:38:45;97244.72;;;8.07;84.18
31346;BME280;21711;49.708;18.568;2023-12-29T02:41:13;97235.22;;;8.01;86.51
31346;BME280;21711;49.708;18.568;2023-12-29T02:43:40;97235.22;;;8.01;84.24
31346;BME280;21711;49.708;18.568;2023-12-29T02:46:08;97240.94;;;7.82;91.33
31346;BME280;21711;49.708;18.568;2023-12-29T02:48:35;97243.22;;;7.73;86.04
31346;BME280;21711;49.708;18.568;2023-12-29T02:51:03;97244.22;;;7.62;89.28
31346;BME280;21711;49.708;18.568;2023-12-29T02:53:30;97242.66;;;7.66;87.42
31346;BME280;21711;49.708;18.568;2023-12-29T02:55:57;97237.16;;;7.68;85.94
31346;BME280;21711;49.708;18.568;2023-12-29T02:58:25;97243.81;;;7.81;87.31
31346;BME280;21711;49.708;18.568;2023-12-29T03:00:53;97238.88;;;7.95;83.00
31346;BME280;21711;49.708;18.568;2023-12-29T03:03:21;97239.28;;;8.24;82.60
31346;BME280;21711;49.708;18.568;2023-12-29T03:05:48;97233.75;;;8.31;84.62
31346;BME280;21711;49.708;18.568;2023-12-29T03:08:16;97247.22;;;8.35;82.70
31346;BME280;21711;49.708;18.568;2023-12-29T03:10:43;97246.47;;;8.50;81.36
31346;BME280;21711;49.708;18.568;2023-12-29T03:13:11;97240.75;;;8.68;82.44
31346;BME280;21711;49.708;18.568;2023-12-29T03:15:38;97243.91;;;8.71;81.53
31346;BME280;21711;49.708;18.568;2023-12-29T03:18:05;97238.63;;;8.71;82.55
31346;BME280;21711;49.708;18.568;2023-12-29T03:20:33;97233.38;;;8.76;81.51
31346;BME280;21711;49.708;18.568;2023-12-29T03:23:01;97236.03;;;8.86;80.20
31346;BME280;21711;49.708;18.568;2023-12-29T03:25:28;97236.81;;;8.87;81.10
31346;BME280;21711;49.708;18.568;2023-12-29T03:27:55;97236.56;;;8.88;80.13
31346;BME280;21711;49.708;18.568;2023-12-29T03:30:22;97238.66;;;8.76;81.34
31346;BME280;21711;49.708;18.568;2023-12-29T03:32:50;97221.00;;;8.76;83.14
31346;BME280;21711;49.708;18.568;2023-12-29T03:35:17;97222.06;;;8.70;84.31
31346;BME280;21711;49.708;18.568;2023-12-29T03:37:44;97214.91;;;8.65;82.93
31346;BME280;21711;49.708;18.568;2023-12-29T03:40:13;97202.28;;;8.67;84.87
31346;BME280;21711;49.708;18.568;2023-12-29T03:42:42;97209.13;;;8.68;84.09
31346;BME280;21711;49.708;18.568;2023-12-29T03:45:10;97203.84;;;8.79;82.33
31346;BME280;21711;49.708;18.568;2023-12-29T03:47:37;97213.59;;;8.84;82.59
31346;BME280;21711;49.708;18.568;2023-12-29T03:50:05;97212.59;;;9.00;83.44
31346;BME280;21711;49.708;18.568;2023-12-29T03:52:32;97213.34;;;8.95;83.25
31346;BME280;21711;49.708;18.568;2023-12-29T03:54:59;97207.56;;;8.93;84.28
31346;BME280;21711;49.708;18.568;2023-12-29T03:57:27;97212.59;;;9.00;82.96
31346;BME280;21711;49.708;18.568;2023-12-29T03:59:55;97219.16;;;9.13;83.46
31346;BME280;21711;49.708;18.568;2023-12-29T04:02:23;97206.16;;;8.49;85.38
31346;BME280;21711;49.708;18.568;2023-12-29T04:04:50;97194.19;;;8.10;87.70
31346;BME280;21711;49.708;18.568;2023-12-29T04:07:17;97179.94;;;8.01;88.70
31346;BME280;21711;49.708;18.568;2023-12-29T04:09:45;97171.25;;;8.06;87.84
31346;BME280;21711;49.708;18.568;2023-12-29T04:12:12;97175.22;;;8.19;89.87
31346;BME280;21711;49.708;18.568;2023-12-29T04:14:39;97159.75;;;8.33;89.55
31346;BME280;21711;49.708;18.568;2023-12-29T04:17:07;97162.19;;;8.55;88.61
31346;BME280;21711;49.708;18.568;2023-12-29T04:19:41;97158.78;;;8.70;90.78
31346;BME280;21711;49.708;18.568;2023-12-29T04:22:09;97174.34;;;8.92;92.13
31346;BME280;21711;49.708;18.568;2023-12-29T04:24:39;97187.00;;;9.06;94.39
31346;BME280;21711;49.708;18.568;2023-12-29T04:27:07;97181.97;;;9.10;94.13
31346;BME280;21711;49.708;18.568;2023-12-29T04:29:34;97186.47;;;8.99;96.59
31346;BME280;21711;49.708;18.568;2023-12-29T04:32:02;97191.75;;;9.25;95.58
31346;BME280;21711;49.708;18.568;2023-12-29T04:34:29;97189.09;;;9.30;96.32
31346;BME280;21711;49.708;18.568;2023-12-29T04:36:57;97191.72;;;9.35;96.59
31346;BME280;21711;49.708;18.568;2023-12-29T04:39:26;97184.34;;;9.27;99.37
31346;BME280;21711;49.708;18.568;2023-12-29T04:41:53;97186.72;;;9.23;100.00
31346;BME280;21711;49.708;18.568;2023-12-29T04:44:20;97179.84;;;9.12;100.00
31346;BME280;21711;49.708;18.568;2023-12-29T04:46:48;97175.13;;;9.19;100.00
31346;BME280;21711;49.708;18.568;2023-12-29T04:49:15;97181.19;;;9.25;100.00
31346;BME280;21711;49.708;18.568;2023-12-29T04:51:43;97180.13;;;9.26;100.00
31346;BME280;21711;49.708;18.568;2023-12-29T04:54:10;97165.34;;;9.35;100.00
31346;BME280;21711;49.708;18.568;2023-12-29T04:56:37;97176.66;;;9.41;100.00
31346;BME280;21711;49.708;18.568;2023-12-29T04:59:05;97173.78;;;9.32;100.00
31346;BME280;21711;49.708;18.568;2023-12-29T05:01:32;97179.81;;;9.48;100.00
31346;BME280;21711;49.708;18.568;2023-12-29T05:03:59;97172.97;;;9.52;100.00
31346;BME280;21711;49.708;18.568;2023-12-29T05:06:27;97175.31;;;9.59;100.00
31346;BME280;21711;49.708;18.568;2023-12-29T05:08:54;97177.16;;;9.64;100.00
31346;BME280;21711;49.708;18.568;2023-12-29T05:11:21;97165.28;;;9.61;100.00
31346;BME280;21711;49.708;18.568;2023-12-29T05:13:49;97155.50;;;9.62;100.00
31346;BME280;21711;49.708;18.568;2023-12-29T05:16:16;97155.75;;;9.70;100.00
31346;BME280;21711;49.708;18.568;2023-12-29T05:18:43;97151.53;;;9.69;100.00
31346;BME280;21711;49.708;18.568;2023-12-29T05:21:16;97150.75;;;9.64;100.00
31346;BME280;21711;49.708;18.568;2023-12-29T05:23:44;97141.50;;;9.61;100.00
31346;BME280;21711;49.708;18.568;2023-12-29T05:26:12;97139.16;;;9.65;99.51
31346;BME280;21711;49.708;18.568;2023-12-29T05:28:40;97135.44;;;9.66;98.75
31346;BME280;21711;49.708;18.568;2023-12-29T05:31:09;97141.00;;;9.59;98.18
31346;BME280;21711;49.708;18.568;2023-12-29T05:33:36;97136.00;;;9.57;97.54
31346;BME280;21711;49.708;18.568;2023-12-29T05:36:08;97154.44;;;9.68;97.00
31346;BME280;21711;49.708;18.568;2023-12-29T05:38:37;97164.66;;;9.85;95.92
31346;BME280;21711;49.708;18.568;2023-12-29T05:41:05;97163.34;;;9.82;95.08
31346;BME280;21711;49.708;18.568;2023-12-29T05:43:34;97170.22;;;9.83;94.83
31346;BME280;21711;49.708;18.568;2023-12-29T05:46:01;97179.75;;;9.84;94.39
31346;BME280;21711;49.708;18.568;2023-12-29T05:48:29;97182.91;;;9.86;93.21
31346;BME280;21711;49.708;18.568;2023-12-29T05:50:57;97184.47;;;9.87;92.70
31346;BME280;21711;49.708;18.568;2023-12-29T05:53:24;97181.59;;;9.79;92.29
31346;BME280;21711;49.708;18.568;2023-12-29T05:55:51;97186.09;;;9.78;89.34
31346;BME280;21711;49.708;18.568;2023-12-29T05:58:19;97192.16;;;9.79;89.97
31346;BME280;21711;49.708;18.568;2023-12-29T06:00:46;97199.84;;;9.75;89.42
31346;BME280;21711;49.708;18.568;2023-12-29T06:03:14;97197.44;;;9.79;87.51
31346;BME280;21711;49.708;18.568;2023-12-29T06:05:42;97210.13;;;9.82;88.71
31346;BME280;21711;49.708;18.568;2023-12-29T06:08:13;97216.19;;;9.77;88.50
31346;BME280;21711;49.708;18.568;2023-12-29T06:10:40;97214.34;;;9.78;88.34
31346;BME280;21711;49.708;18.568;2023-12-29T06:13:07;97217.00;;;9.72;89.00
31346;BME280;21711;49.708;18.568;2023-12-29T06:15:35;97231.56;;;9.65;88.29
31346;BME280;21711;49.708;18.568;2023-12-29T06:18:04;97226.81;;;9.62;89.37
31346;BME280;21711;49.708;18.568;2023-12-29T06:20:32;97218.06;;;9.66;87.78
31346;BME280;21711;49.708;18.568;2023-12-29T06:23:00;97222.56;;;9.50;88.60
31346;BME280;21711;49.708;18.568;2023-12-29T06:25:28;97230.25;;;9.41;88.87
31346;BME280;21711;49.708;18.568;2023-12-29T06:27:56;97217.88;;;9.37;89.65
31346;BME280;21711;49.708;18.568;2023-12-29T06:30:23;97218.38;;;9.28;89.10
31346;BME280;21711;49.708;18.568;2023-12-29T06:32:51;97219.97;;;9.19;90.16
31346;BME280;21711;49.708;18.568;2023-12-29T06:35:19;97218.66;;;9.06;90.23
31346;BME280;21711;49.708;18.568;2023-12-29T06:37:46;97209.13;;;9.00;91.10
31346;BME280;21711;49.708;18.568;2023-12-29T06:40:15;97210.75;;;9.01;90.88
31346;BME280;21711;49.708;18.568;2023-12-29T06:42:43;97202.81;;;8.90;91.15
31346;BME280;21711;49.708;18.568;2023-12-29T06:45:11;97189.09;;;8.78;91.61
31346;BME280;21711;49.708;18.568;2023-12-29T06:47:38;97188.56;;;8.81;92.45
31346;BME280;21711;49.708;18.568;2023-12-29T06:50:06;97188.84;;;8.79;92.92
31346;BME280;21711;49.708;18.568;2023-12-29T06:52:37;97185.41;;;8.68;92.99
31346;BME280;21711;49.708;18.568;2023-12-29T06:55:05;97181.44;;;8.66;92.98
31346;BME280;21711;49.708;18.568;2023-12-29T06:57:32;97178.00;;;8.60;94.22
31346;BME280;21711;49.708;18.568;2023-12-29T06:59:59;97180.13;;;8.74;92.23
31346;BME280;21711;49.708;18.568;2023-12-29T07:02:27;97176.94;;;8.66;92.62
31346;BME280;21711;49.708;18.568;2023-12-29T07:04:54;97177.22;;;8.75;91.87
31346;BME280;21711;49.708;18.568;2023-12-29T07:07:22;97187.53;;;8.87;91.65
31346;BME280;21711;49.708;18.568;2023-12-29T07:09:49;97182.25;;;9.03;90.58
31346;BME280;21711;49.708;18.568;2023-12-29T07:12:17;97184.09;;;9.18;88.97
31346;BME280;21711;49.708;18.568;2023-12-29T07:14:44;97180.38;;;9.34;87.76
31346;BME280;21711;49.708;18.568;2023-12-29T07:17:12;97191.47;;;9.37;87.62
31346;BME280;21711;49.708;18.568;2023-12-29T07:19:39;97184.28;;;9.53;87.49
31346;BME280;21711;49.708;18.568;2023-12-29T07:22:07;97167.63;;;9.73;85.54
31346;BME280;21711;49.708;18.568;2023-12-29T07:24:36;97178.47;;;9.66;85.03
31346;BME280;21711;49.708;18.568;2023-12-29T07:27:04;97176.88;;;9.70;85.00
31346;BME280;21711;49.708;18.568;2023-12-29T07:29:31;97186.66;;;9.70;85.46
31346;BME280;21711;49.708;18.568;2023-12-29T07:31:59;97193.75;;;9.80;86.57
31346;BME280;21711;49.708;18.568;2023-12-29T07:34:26;97197.44;;;9.79;84.75
31346;BME280;21711;49.708;18.568;2023-12-29T07:36:54;97188.72;;;9.89;84.49
31346;BME280;21711;49.708;18.568;2023-12-29T07:39:22;97199.53;;;9.92;83.51
31346;BME280;21711;49.708;18.568;2023-12-29T07:41:50;97198.97;;;9.95;83.60
31346;BME280;21711;49.708;18.568;2023-12-29T07:44:18;97194.22;;;9.97;82.99
31346;BME280;21711;49.708;18.568;2023-12-29T07:46:46;97193.69;;;9.95;82.19
31346;BME280;21711;49.708;18.568;2023-12-29T07:49:13;97199.97;;;10.15;81.72
31346;BME280;21711;49.708;18.568;2023-12-29T07:51:42;97206.59;;;10.12;81.81
31346;BME280;21711;49.708;18.568;2023-12-29T07:54:10;97210.28;;;10.06;82.70
31346;BME280;21711;49.708;18.568;2023-12-29T07:56:37;97210.53;;;10.15;81.88
31346;BME280;21711;49.708;18.568;2023-12-29T07:59:05;97213.97;;;10.16;82.07
31346;BME280;21711;49.708;18.568;2023-12-29T08:01:33;97216.56;;;10.21;81.30
31346;BME280;21711;49.708;18.568;2023-12-29T08:04:01;97215.25;;;10.18;81.69
31346;BME280;21711;49.708;18.568;2023-12-29T08:06:29;97219.72;;;10.28;81.92
31346;BME280;21711;49.708;18.568;2023-12-29T08:08:56;97217.72;;;10.65;80.21
31346;BME280;21711;49.708;18.568;2023-12-29T08:11:23;97211.25;;;11.16;77.38
31346;BME280;21711;49.708;18.568;2023-12-29T08:13:51;97216.84;;;11.15;76.72
31346;BME280;21711;49.708;18.568;2023-12-29T08:16:18;97212.34;;;11.15;76.83
31346;BME280;21711;49.708;18.568;2023-12-29T08:18:48;97216.63;;;12.19;73.12
31346;BME280;21711;49.708;18.568;2023-12-29T08:21:20;97216.81;;;12.47;70.02
31346;BME280;21711;49.708;18.568;2023-12-29T08:23:48;97213.22;;;11.65;72.73
31346;BME280;21711;49.708;18.568;2023-12-29T08:26:16;97205.28;;;11.35;74.81
31346;BME280;21711;49.708;18.568;2023-12-29T08:28:44;97206.03;;;11.41;75.09
31346;BME280;21711;49.708;18.568;2023-12-29T08:31:14;97211.31;;;11.41;74.83
31346;BME280;21711;49.708;18.568;2023-12-29T08:33:42;97205.56;;;11.63;73.96
31346;BME280;21711;49.708;18.568;2023-12-29T08:36:11;97207.16;;;12.76;71.65
31346;BME280;21711;49.708;18.568;2023-12-29T08:38:39;97224.56;;;14.61;62.66
31346;BME280;21711;49.708;18.568;2023-12-29T08:41:06;97226.94;;;16.26;57.14
31346;BME280;21711;49.708;18.568;2023-12-29T08:43:34;97218.72;;;15.96;56.44
31346;BME280;21711;49.708;18.568;2023-12-29T08:46:03;97218.28;;;16.12;55.76
31346;BME280;21711;49.708;18.568;2023-12-29T08:48:31;97230.00;;;16.78;53.07
31346;BME280;21711;49.708;18.568;2023-12-29T08:50:58;97221.53;;;17.11;51.60
31346;BME280;21711;49.708;18.568;2023-12-29T08:53:25;97220.75;;;17.67;49.90
31346;BME280;21711;49.708;18.568;2023-12-29T08:55:53;97233.31;;;18.45;49.53
31346;BME280;21711;49.708;18.568;2023-12-29T08:58:20;97242.06;;;18.75;47.55
31346;BME280;21711;49.708;18.568;2023-12-29T09:00:48;97220.09;;;16.87;50.68
31346;BME280;21711;49.708;18.568;2023-12-29T09:03:15;97211.94;;;16.66;51.63
31346;BME280;21711;49.708;18.568;2023-12-29T09:05:43;97220.84;;;16.26;53.57
31346;BME280;21711;49.708;18.568;2023-12-29T09:08:10;97206.03;;;15.70;55.18
31346;BME280;21711;49.708;18.568;2023-12-29T09:10:37;97204.72;;;15.27;56.38
31346;BME280;21711;49.708;18.568;2023-12-29T09:13:05;97193.00;;;15.05;57.39
31346;BME280;21711;49.708;18.568;2023-12-29T09:15:33;97185.56;;;14.93;58.04
31346;BME280;21711;49.708;18.568;2023-12-29T09:18:02;97181.75;;;14.85;59.13
31346;BME280;21711;49.708;18.568;2023-12-29T09:20:30;97184.47;;;14.06;61.39
31346;BME280;21711;49.708;18.568;2023-12-29T09:22:58;97180.81;;;14.16;60.71
31346;BME280;21711;49.708;18.568;2023-12-29T09:25:26;97177.47;;;13.83;63.17
31346;BME280;21711;49.708;18.568;2023-12-29T09:27:55;97182.50;;;13.56;63.73
31346;BME280;21711;49.708;18.568;2023-12-29T09:30:22;97183.03;;;13.25;64.88
31346;BME280;21711;49.708;18.568;2023-12-29T09:32:49;97189.50;;;13.66;64.33
31346;BME280;21711;49.708;18.568;2023-12-29T09:35:17;97184.78;;;13.77;63.39
31346;BME280;21711;49.708;18.568;2023-12-29T09:37:44;97183.31;;;13.85;63.69
31346;BME280;21711;49.708;18.568;2023-12-29T09:40:12;97186.34;;;13.78;64.69
31346;BME280;21711;49.708;18.568;2023-12-29T09:42:42;97187.97;;;13.46;65.67
31346;BME280;21711;49.708;18.568;2023-12-29T09:45:12;97191.25;;;13.57;66.54
31346;BME280;21711;49.708;18.568;2023-12-29T09:47:42;97181.28;;;13.34;66.07
31346;BME280;21711;49.708;18.568;2023-12-29T09:50:12;97180.13;;;13.07;66.81
31346;BME280;21711;49.708;18.568;2023-12-29T09:52:40;97184.41;;;13.36;66.05
31346;BME280;21711;49.708;18.568;2023-12-29T09:55:10;97181.28;;;13.34;65.83
31346;BME280;21711;49.708;18.568;2023-12-29T09:57:38;97189.59;;;13.75;65.02
31346;BME280;21711;49.708;18.568;2023-12-29T10:00:11;97182.13;;;13.29;66.25
31346;BME280;21711;49.708;18.568;2023-12-29T10:02:39;97178.56;;;13.06;66.44
31346;BME280;21711;49.708;18.568;2023-12-29T10:05:07;97177.28;;;12.84;67.53
31346;BME280;21711;49.708;18.568;2023-12-29T10:07:38;97177.03;;;12.67;68.48
31346;BME280;21711;49.708;18.568;2023-12-29T10:10:06;97175.25;;;12.95;68.40
31346;BME280;21711;49.708;18.568;2023-12-29T10:12:36;97175.78;;;12.59;69.25
31346;BME280;21711;49.708;18.568;2023-12-29T10:17:58;97180.91;;;12.74;68.78
31346;BME280;21711;49.708;18.568;2023-12-29T10:20:45;97171.78;;;13.14;67.80
31346;BME280;21711;49.708;18.568;2023-12-29T10:26:22;97153.44;;;12.46;68.58
31346;BME280;21711;49.708;18.568;2023-12-29T10:28:50;97145.59;;;12.74;68.50
31346;BME280;21711;49.708;18.568;2023-12-29T10:31:18;97150.88;;;13.26;66.40
31346;BME280;21711;49.708;18.568;2023-12-29T10:33:45;97144.06;;;13.20;66.92
31346;BME280;21711;49.708;18.568;2023-12-29T10:36:18;97137.75;;;13.16;65.49
31346;BME280;21711;49.708;18.568;2023-12-29T10:38:45;97144.00;;;12.92;66.68
31346;BME280;21711;49.708;18.568;2023-12-29T10:41:18;97148.47;;;13.58;65.57
31346;BME280;21711;49.708;18.568;2023-12-29T10:43:47;97161.22;;;13.42;64.78
31346;BME280;21711;49.708;18.568;2023-12-29T10:46:19;97161.06;;;13.80;64.36
31346;BME280;21711;49.708;18.568;2023-12-29T10:48:48;97143.63;;;13.88;63.05
31346;BME280;21711;49.708;18.568;2023-12-29T10:51:16;97159.88;;;14.01;61.98
31346;BME280;21711;49.708;18.568;2023-12-29T10:53:56;97150.22;;;13.91;61.54
31346;BME280;21711;49.708;18.568;2023-12-29T10:56:24;97155.63;;;14.14;61.85
31346;BME280;21711;49.708;18.568;2023-12-29T10:59:01;97143.47;;;14.22;61.41
31346;BME280;21711;49.708;18.568;2023-12-29T11:01:35;97152.94;;;14.14;60.72
31346;BME280;21711;49.708;18.568;2023-12-29T11:04:05;97138.13;;;14.36;60.73
31346;BME280;21711;49.708;18.568;2023-12-29T11:06:44;97142.81;;;14.53;60.40
31346;BME280;21711;49.708;18.568;2023-12-29T11:09:31;97127.38;;;14.41;59.68
31346;BME280;21711;49.708;18.568;2023-12-29T11:12:03;97131.50;;;14.10;60.18
31346;BME280;21711;49.708;18.568;2023-12-29T11:14:31;97127.00;;;13.83;61.20
31346;BME280;21711;49.708;18.568;2023-12-29T11:17:00;97127.31;;;13.67;62.66
31346;BME280;21711;49.708;18.568;2023-12-29T11:19:28;97134.09;;;13.59;62.42
31346;BME280;21711;49.708;18.568;2023-12-29T11:21:56;97138.06;;;13.14;64.17
31346;BME280;21711;49.708;18.568;2023-12-29T11:24:24;97132.88;;;13.37;63.85
31346;BME280;21711;49.708;18.568;2023-12-29T11:27:07;97127.34;;;13.34;63.02
31346;BME280;21711;49.708;18.568;2023-12-29T11:29:35;97119.47;;;13.14;64.31
31346;BME280;21711;49.708;18.568;2023-12-29T11:32:11;97108.19;;;12.89;64.79
31346;BME280;21711;49.708;18.568;2023-12-29T11:43:59;97104.63;;;12.80;64.66
31346;BME280;21711;49.708;18.568;2023-12-29T11:46:40;97105.63;;;12.84;64.75
31346;BME280;21711;49.708;18.568;2023-12-29T11:49:13;97094.25;;;12.84;63.54
31346;BME280;21711;49.708;18.568;2023-12-29T11:54:26;97093.34;;;12.74;63.63
31346;BME280;21711;49.708;18.568;2023-12-29T11:56:54;97090.88;;;12.78;62.20
31346;BME280;21711;49.708;18.568;2023-12-29T11:59:24;97086.13;;;12.42;63.83
31346;BME280;21711;49.708;18.568;2023-12-29T12:01:57;97097.72;;;12.98;62.36
31346;BME280;21711;49.708;18.568;2023-12-29T12:04:42;97100.38;;;12.98;62.48
31346;BME280;21711;49.708;18.568;2023-12-29T12:12:48;97104.22;;;12.40;62.26
31346;BME280;21711;49.708;18.568;2023-12-29T12:17:55;97118.97;;;13.12;60.24
31346;BME280;21711;49.708;18.568;2023-12-29T12:20:23;97106.91;;;12.87;59.90
31346;BME280;21711;49.708;18.568;2023-12-29T12:23:04;97107.91;;;12.91;61.21
31346;BME280;21711;49.708;18.568;2023-12-29T12:25:36;97119.78;;;13.27;60.11
31346;BME280;21711;49.708;18.568;2023-12-29T12:28:07;97126.22;;;13.07;59.96
31346;BME280;21711;49.708;18.568;2023-12-29T12:30:35;97115.25;;;13.27;60.25
31346;BME280;21711;49.708;18.568;2023-12-29T12:33:04;97099.59;;;12.65;61.09
31346;BME280;21711;49.708;18.568;2023-12-29T12:35:33;97114.38;;;13.32;59.02
31346;BME280;21711;49.708;18.568;2023-12-29T12:38:16;97102.00;;;13.70;57.92
31346;BME280;21711;49.708;18.568;2023-12-29T12:40:49;97109.19;;;13.83;57.00
31346;BME280;21711;49.708;18.568;2023-12-29T12:43:17;97102.34;;;13.07;60.60
31346;BME280;21711;49.708;18.568;2023-12-29T12:45:59;97107.81;;;12.96;61.12
31346;BME280;21711;49.708;18.568;2023-12-29T12:48:36;97109.81;;;13.19;60.70
31346;BME280;21711;49.708;18.568;2023-12-29T12:51:11;97117.97;;;13.56;58.55
31346;BME280;21711;49.708;18.568;2023-12-29T12:53:42;97126.31;;;13.49;59.21
31346;BME280;21711;49.708;18.568;2023-12-29T12:56:11;97121.34;;;12.81;61.06
31346;BME280;21711;49.708;18.568;2023-12-29T12:58:39;97120.66;;;12.75;62.51
31346;BME280;21711;49.708;18.568;2023-12-29T13:01:07;97116.19;;;12.37;63.02
31346;BME280;21711;49.708;18.568;2023-12-29T13:03:38;97110.19;;;11.88;63.88
31346;BME280;21711;49.708;18.568;2023-12-29T13:06:06;97111.13;;;11.97;65.57
31346;BME280;21711;49.708;18.568;2023-12-29T13:08:34;97106.03;;;11.81;65.75
31346;BME280;21711;49.708;18.568;2023-12-29T13:11:09;97104.34;;;11.66;66.51
31346;BME280;21711;49.708;18.568;2023-12-29T13:13:42;97107.25;;;11.46;67.60
31346;BME280;21711;49.708;18.568;2023-12-29T13:16:10;97109.09;;;11.45;68.62
31346;BME280;21711;49.708;18.568;2023-12-29T13:18:38;97096.34;;;11.47;68.33
31346;BME280;21711;49.708;18.568;2023-12-29T13:21:07;97106.78;;;11.63;69.04
31346;BME280;21711;49.708;18.568;2023-12-29T13:23:35;97098.53;;;11.15;69.90
31346;BME280;21711;49.708;18.568;2023-12-29T13:26:07;97093.75;;;11.17;70.16
31346;BME280;21711;49.708;18.568;2023-12-29T13:28:36;97088.97;;;11.20;69.97
31346;BME280;21711;49.708;18.568;2023-12-29T13:31:10;97093.44;;;10.95;70.65